Time;durP1;ratioP1;P1;durP2;ratioP2;P2;SDS_P1;SDS_P2;PMS_P1;PMS_P2;Temp;Humidity;BMP_temperature;BMP_pressure;BME280_temperature;BME280_humidity;BME280_pressure;Samples;Min_cycle;Max_cycle;Signal;HPM_P1;HPM_P2
2022/01/29 00:01:37;;;;;;;2.42;1.85;;;;;;;10.31;57.50;98659.47;1794662;79;20967;-63
2022/01/29 00:04:04;;;;;;;2.67;2.25;;;;;;;10.31;57.51;98659.98;1810896;79;21049;-62
2022/01/29 00:06:31;;;;;;;2.77;2.00;;;;;;;10.29;57.50;98668.09;1800170;79;21096;-62
2022/01/29 00:08:58;;;;;;;2.22;1.87;;;;;;;10.32;57.49;98672.25;1790432;79;20998;-62
2022/01/29 00:11:30;;;;;;;2.20;1.98;;;;;;;10.30;57.49;98675.09;1797245;77;21020;-62
2022/01/29 00:13:56;;;;;;;2.20;2.00;;;;;;;10.30;57.47;98672.92;1798977;79;21475;-62
2022/01/29 00:16:22;;;;;;;2.05;1.85;;;;;;;10.29;57.46;98677.39;1797261;78;21176;-62
2022/01/29 00:18:48;;;;;;;2.40;2.10;;;;;;;10.29;57.46;98684.54;1799456;79;21018;-61
2022/01/29 00:21:16;;;;;;;1.90;1.80;;;;;;;10.28;57.45;98686.38;1794606;79;21322;-62
2022/01/29 00:23:43;;;;;;;2.10;1.90;;;;;;;10.29;57.44;98684.54;1771695;79;20990;-62
2022/01/29 00:26:11;;;;;;;2.05;1.85;;;;;;;10.28;57.45;98686.38;1794232;79;21320;-61
2022/01/29 00:31:22;;;;;;;2.30;2.10;;;;;;;10.30;57.43;98681.73;1842034;76;28008;-62
2022/01/29 00:33:48;;;;;;;2.20;2.00;;;;;;;10.26;57.42;98687.08;1853550;75;21046;-62
2022/01/29 00:36:15;;;;;;;2.05;1.85;;;;;;;10.26;57.40;98683.58;1833816;77;21097;-61
2022/01/29 00:38:42;;;;;;;3.10;2.27;;;;;;;10.27;57.41;98699.84;1843294;77;21015;-62
2022/01/29 00:41:08;;;;;;;1.90;1.80;;;;;;;10.24;57.40;98696.55;1846549;75;21067;-62
2022/01/29 00:43:35;;;;;;;2.80;2.17;;;;;;;10.25;57.39;98697.37;1841646;77;21002;-60
2022/01/29 00:46:01;;;;;;;2.72;1.90;;;;;;;10.24;57.37;98699.21;1857276;77;20971;-61
2022/01/29 00:48:28;;;;;;;2.10;1.90;;;;;;;10.24;57.37;98709.02;1844457;77;21133;-62
2022/01/29 00:50:54;;;;;;;2.10;1.90;;;;;;;10.23;57.36;98710.02;1839839;77;21055;-61
2022/01/29 00:53:21;;;;;;;2.33;2.02;;;;;;;10.23;57.36;98712.67;1834264;76;21029;-62
2022/01/29 00:55:48;;;;;;;1.77;1.67;;;;;;;10.23;57.35;98715.32;1853818;77;21112;-61
2022/01/29 00:58:14;;;;;;;1.85;1.57;;;;;;;10.21;57.33;98711.52;1850761;77;21037;-62
2022/01/29 01:00:40;;;;;;;1.72;1.62;;;;;;;10.21;57.33;98710.71;1859003;75;21099;-62
2022/01/29 01:03:07;;;;;;;1.67;1.55;;;;;;;10.21;57.32;98715.51;1859594;77;20984;-62
2022/01/29 01:05:33;;;;;;;2.08;1.77;;;;;;;10.20;57.31;98715.20;1841942;75;21381;-62
2022/01/29 01:08:00;;;;;;;2.10;1.90;;;;;;;10.20;57.32;98720.52;1845647;77;21132;-63
2022/01/29 01:10:26;;;;;;;2.20;1.70;;;;;;;10.19;57.32;98717.53;1856198;77;21034;-62
2022/01/29 01:12:53;;;;;;;1.90;1.70;;;;;;;10.19;57.32;98720.70;1833588;77;21312;-62
2022/01/29 01:15:19;;;;;;;1.60;1.47;;;;;;;10.18;57.31;98720.41;1824909;77;20974;-62
2022/01/29 01:17:46;;;;;;;1.70;1.60;;;;;;;10.18;57.30;98722.55;1854795;76;21026;-63
2022/01/29 01:20:12;;;;;;;1.75;1.65;;;;;;;10.18;57.30;98723.05;1853101;77;21038;-63
2022/01/29 01:22:39;;;;;;;2.55;1.60;;;;;;;10.18;57.30;98721.73;1843414;75;21050;-61
2022/01/29 01:25:08;;;;;;;1.95;1.65;;;;;;;10.18;57.27;98724.38;1843835;77;21126;-62
2022/01/29 01:27:35;;;;;;;2.02;1.62;;;;;;;10.17;57.28;98726.70;1849974;77;21050;-61
2022/01/29 01:30:02;;;;;;;2.00;1.80;;;;;;;10.16;57.26;98725.89;1858496;77;20987;-60
2022/01/29 01:32:28;;;;;;;1.85;1.45;;;;;;;10.16;57.26;98728.55;1843455;77;21021;-61
2022/01/29 01:35:05;;;;;;;1.60;1.50;;;;;;;10.16;57.25;98718.41;1848672;77;21066;-62
2022/01/29 01:37:50;;;;;;;1.85;1.67;;;;;;;10.15;57.25;98737.50;1861426;77;21860;-62
2022/01/29 01:40:09;;;;;;;1.80;1.60;;;;;;;10.15;57.25;98736.70;1842840;75;21044;-62
2022/01/29 01:42:36;;;;;;;1.60;1.50;;;;;;;10.14;57.26;98739.86;1844414;75;21007;-61
2022/01/29 01:45:03;;;;;;;1.45;1.32;;;;;;;10.13;57.23;98743.52;1852306;75;21726;-62
2022/01/29 01:47:30;;;;;;;1.45;1.35;;;;;;;10.13;57.24;98752.80;1846633;77;21059;-61
2022/01/29 01:49:58;;;;;;;1.60;1.40;;;;;;;10.13;57.24;98755.97;1851343;77;20999;-60
2022/01/29 01:52:24;;;;;;;1.67;1.57;;;;;;;10.12;57.23;98758.29;1860076;77;21112;-62
2022/01/29 01:54:51;;;;;;;1.98;1.65;;;;;;;10.12;57.23;98763.12;1860997;77;21003;-61
2022/01/29 01:57:17;;;;;;;1.90;1.65;;;;;;;10.12;57.21;98765.77;1853125;75;21101;-61
2022/01/29 01:59:44;;;;;;;1.85;1.50;;;;;;;10.12;57.21;98771.56;1844625;77;21133;-62
2022/01/29 02:02:11;;;;;;;1.75;1.50;;;;;;;10.11;57.22;98769.94;1856013;77;21198;-61
2022/01/29 02:04:38;;;;;;;1.47;1.37;;;;;;;10.11;57.22;98785.34;1845383;75;20998;-61
2022/01/29 02:07:04;;;;;;;1.82;1.47;;;;;;;10.11;57.22;98773.91;1860433;77;21046;-60
2022/01/29 02:09:32;;;;;;;1.52;1.40;;;;;;;10.10;57.19;98776.23;1845998;77;21070;-60
2022/01/29 02:12:02;;;;;;;1.45;1.30;;;;;;;10.09;57.19;98783.38;1853976;75;21010;-65
2022/01/29 02:14:34;;;;;;;1.55;1.40;;;;;;;10.09;57.18;98786.55;1852135;75;21011;-60
2022/01/29 02:17:00;;;;;;;1.60;1.50;;;;;;;10.08;57.17;98792.34;1851035;77;21522;-61
2022/01/29 02:19:26;;;;;;;1.42;1.30;;;;;;;10.08;57.17;98798.16;1858336;77;21072;-61
2022/01/29 02:21:55;;;;;;;1.42;1.32;;;;;;;10.08;57.17;98799.48;1854078;77;21026;-60
2022/01/29 02:24:21;;;;;;;1.30;1.20;;;;;;;10.07;57.18;98805.31;1861000;77;21127;-61
2022/01/29 02:26:48;;;;;;;1.85;1.45;;;;;;;10.08;57.16;98806.13;1860012;75;21209;-61
2022/01/29 02:29:15;;;;;;;1.50;1.40;;;;;;;10.07;57.14;98803.17;1846346;77;21503;-61
2022/01/29 02:31:53;;;;;;;1.60;1.50;;;;;;;10.07;57.14;98812.45;1856467;77;21490;-61
2022/01/29 02:34:20;;;;;;;1.50;1.27;;;;;;;10.06;57.13;98810.80;1854000;77;21069;-60
2022/01/29 02:36:46;;;;;;;1.40;1.30;;;;;;;10.06;57.13;98815.59;1851286;77;21581;-61
2022/01/29 02:39:14;;;;;;;1.40;1.30;;;;;;;10.04;57.13;98821.11;1829138;77;21121;-59
2022/01/29 02:41:44;;;;;;;1.32;1.22;;;;;;;10.06;57.13;98828.05;1858283;75;21560;-60
2022/01/29 02:44:17;;;;;;;1.30;1.20;;;;;;;10.04;57.13;98834.37;1851941;77;21074;-60
2022/01/29 02:46:50;;;;;;;1.32;1.22;;;;;;;10.04;57.10;98840.16;1843958;75;21037;-61
2022/01/29 02:49:19;;;;;;;1.20;1.10;;;;;;;10.03;57.12;98844.66;1838099;77;21093;-61
2022/01/29 02:51:47;;;;;;;1.40;1.30;;;;;;;10.02;57.11;98848.34;1837367;77;21110;-60
2022/01/29 02:54:14;;;;;;;1.22;1.12;;;;;;;10.01;57.10;98842.70;1846048;77;21061;-61
2022/01/29 02:56:40;;;;;;;1.15;1.05;;;;;;;10.02;57.10;98847.49;1859007;77;21041;-61
2022/01/29 02:59:07;;;;;;;1.50;1.17;;;;;;;10.01;57.09;98860.46;1846180;77;21152;-61
2022/01/29 03:01:33;;;;;;;1.32;1.20;;;;;;;10.01;57.08;98859.13;1857108;77;21073;-61
2022/01/29 03:04:00;;;;;;;1.17;1.07;;;;;;;10.01;57.10;98853.83;1861331;77;23313;-60
2022/01/29 03:06:26;;;;;;;1.32;1.22;;;;;;;10.00;57.08;98864.11;1854172;77;21079;-62
2022/01/29 03:08:53;;;;;;;1.10;1.00;;;;;;;10.00;57.06;98864.92;1858821;77;21019;-61
2022/01/29 03:11:21;;;;;;;2.67;1.27;;;;;;;10.01;57.05;98865.77;1853051;75;21010;-60
2022/01/29 03:13:47;;;;;;;1.27;1.17;;;;;;;10.00;57.05;98872.87;1859580;77;20990;-60
2022/01/29 03:16:14;;;;;;;1.40;1.30;;;;;;;10.00;57.05;98874.72;1852696;75;21199;-59
2022/01/29 03:18:40;;;;;;;1.27;1.12;;;;;;;9.99;57.03;98887.17;1858788;77;21533;-60
2022/01/29 03:21:07;;;;;;;1.40;1.30;;;;;;;9.99;57.03;98888.50;1838544;76;21084;-60
2022/01/29 03:23:34;;;;;;;1.50;1.30;;;;;;;9.99;57.04;98897.78;1858169;77;21590;-59
2022/01/29 03:26:01;;;;;;;1.20;1.10;;;;;;;9.98;57.00;98896.13;1859807;77;21050;-60
2022/01/29 03:28:28;;;;;;;1.75;1.30;;;;;;;9.97;57.01;98895.83;1852370;77;21848;-61
2022/01/29 03:30:55;;;;;;;1.15;1.10;;;;;;;9.97;56.99;98899.80;1844874;77;21015;-61
2022/01/29 03:33:22;;;;;;;1.10;1.00;;;;;;;9.98;56.99;98896.64;1830912;77;20985;-62
2022/01/29 03:35:49;;;;;;;1.65;1.25;;;;;;;9.97;56.98;98917.05;1832420;77;21026;-60
2022/01/29 03:38:16;;;;;;;1.07;1.00;;;;;;;9.98;56.95;98913.88;1851432;77;21672;-61
2022/01/29 03:40:46;;;;;;;1.00;0.90;;;;;;;9.97;56.97;98918.37;1839652;75;21137;-59
2022/01/29 03:43:16;;;;;;;0.90;0.90;;;;;;;9.97;56.98;98914.39;1851555;77;21006;-60
2022/01/29 03:45:40;;;;;;;1.10;1.00;;;;;;;9.97;56.96;98914.91;1842794;76;22102;-60
2022/01/29 03:48:06;;;;;;;1.27;1.10;;;;;;;9.97;56.96;98926.84;1856780;77;21023;-60
2022/01/29 03:50:35;;;;;;;1.45;1.35;;;;;;;9.95;56.95;98929.68;1858047;77;21046;-59
2022/01/29 03:53:01;;;;;;;1.25;1.15;;;;;;;9.95;56.93;98932.33;1854414;75;21163;-60
2022/01/29 03:55:28;;;;;;;1.20;1.00;;;;;;;9.95;56.94;98935.50;1846491;77;21029;-61
2022/01/29 03:57:54;;;;;;;1.37;1.27;;;;;;;9.95;56.92;98941.63;1853920;75;21019;-61
2022/01/29 04:00:20;;;;;;;1.20;1.10;;;;;;;9.94;56.93;98946.59;1824473;77;21638;-60
2022/01/29 04:02:47;;;;;;;1.32;1.22;;;;;;;9.94;56.92;98949.75;1858257;77;21062;-61
2022/01/29 04:05:13;;;;;;;1.25;1.10;;;;;;;9.93;56.92;98947.61;1848229;77;21096;-60
2022/01/29 04:07:41;;;;;;;2.08;1.40;;;;;;;9.94;56.90;98949.75;1843711;77;21011;-60
2022/01/29 04:10:08;;;;;;;1.45;1.20;;;;;;;9.94;56.90;98959.86;1853050;75;21065;-60
2022/01/29 04:12:41;;;;;;;1.35;1.00;;;;;;;9.93;56.89;98956.90;1854250;77;21054;-60
2022/01/29 04:15:06;;;;;;;1.10;1.00;;;;;;;9.92;56.88;98959.22;1850924;77;21493;-60
2022/01/29 04:17:33;;;;;;;1.20;1.10;;;;;;;9.93;56.88;98966.19;1857954;77;21070;-61
2022/01/29 04:19:59;;;;;;;1.05;0.95;;;;;;;9.92;56.89;98975.14;1855470;77;20983;-62
2022/01/29 04:22:25;;;;;;;1.02;0.95;;;;;;;9.91;56.88;98978.81;1855370;75;21033;-61
2022/01/29 04:24:52;;;;;;;1.10;1.00;;;;;;;9.92;56.87;98977.79;1859427;75;20999;-60
2022/01/29 04:27:22;;;;;;;1.20;1.10;;;;;;;9.91;56.84;98985.92;1854205;77;21096;-62
2022/01/29 04:29:59;;;;;;;1.30;1.10;;;;;;;9.91;56.83;98991.23;1856089;77;21145;-62
2022/01/29 04:32:45;;;;;;;1.20;1.10;;;;;;;9.90;56.86;98995.72;1819032;77;21016;-61
2022/01/29 04:34:52;;;;;;;1.10;1.00;;;;;;;9.90;56.83;98991.74;1809648;78;21107;-62
2022/01/29 04:37:19;;;;;;;1.15;1.05;;;;;;;9.90;56.84;99002.36;1801722;78;21531;-60
2022/01/29 04:39:45;;;;;;;1.20;1.10;;;;;;;9.90;56.84;99002.87;1801167;78;21039;-60
2022/01/29 04:42:11;;;;;;;1.12;1.02;;;;;;;9.89;56.83;99006.51;1812735;78;21051;-60
2022/01/29 04:44:37;;;;;;;1.05;0.95;;;;;;;9.89;56.81;99006.03;1814376;77;20969;-60
2022/01/29 04:47:04;;;;;;;1.12;1.05;;;;;;;9.88;56.81;99016.81;1807663;78;21051;-61
2022/01/29 04:49:30;;;;;;;1.10;1.02;;;;;;;9.89;56.80;99017.13;1811108;78;21012;-60
2022/01/29 04:51:57;;;;;;;1.20;1.10;;;;;;;9.88;56.78;99020.28;1747871;81;21038;-60
2022/01/29 04:54:24;;;;;;;1.20;1.10;;;;;;;9.88;56.78;99025.59;1739051;82;21049;-60
2022/01/29 04:56:50;;;;;;;1.20;1.10;;;;;;;9.88;56.77;99027.42;1744281;81;21075;-61
2022/01/29 04:59:17;;;;;;;1.20;1.10;;;;;;;9.88;56.76;99036.20;1733603;81;21175;-60
2022/01/29 05:01:43;;;;;;;1.15;1.05;;;;;;;9.89;56.77;99043.66;1744348;81;21042;-61
2022/01/29 05:04:10;;;;;;;0.98;0.98;;;;;;;9.88;56.75;99048.14;1731447;82;21046;-61
2022/01/29 05:06:36;;;;;;;1.27;1.12;;;;;;;9.88;56.75;99046.00;1736598;81;21108;-60
2022/01/29 05:09:06;;;;;;;1.20;1.10;;;;;;;9.87;56.73;99053.63;1722275;82;21049;-61
2022/01/29 05:11:31;;;;;;;1.52;1.00;;;;;;;9.86;56.73;99067.40;1731351;82;21012;-60
2022/01/29 05:13:59;;;;;;;1.00;1.00;;;;;;;9.87;56.72;99066.89;1738602;82;21052;-61
2022/01/29 05:27:08;;;;;;;1.52;1.30;;;;;;;9.84;56.69;99084.00;1736718;81;21610;-61
2022/01/29 05:29:36;;;;;;;1.27;1.17;;;;;;;9.83;56.68;99094.27;1736950;81;21050;-61
2022/01/29 05:32:06;;;;;;;1.30;1.20;;;;;;;9.83;56.70;99101.75;1759165;79;21116;-60
2022/01/29 05:34:32;;;;;;;0.90;0.90;;;;;;;9.83;56.68;99107.53;1819595;78;21060;-63
2022/01/29 05:36:59;;;;;;;1.47;1.20;;;;;;;9.83;56.70;99104.88;1787556;80;21131;-60
2022/01/29 05:39:25;;;;;;;1.22;1.12;;;;;;;9.83;56.70;99107.53;1791971;79;21524;-62
2022/01/29 05:41:53;;;;;;;1.52;1.30;;;;;;;9.82;56.67;99104.06;1783657;79;21058;-61
2022/01/29 05:44:20;;;;;;;1.27;1.10;;;;;;;9.82;56.67;99112.53;1798411;79;21280;-60
2022/01/29 05:46:46;;;;;;;0.95;0.95;;;;;;;9.82;56.66;99117.84;1781786;79;21607;-60
2022/01/29 05:49:12;;;;;;;1.32;1.00;;;;;;;9.82;56.67;99119.98;1774202;79;21045;-62
2022/01/29 05:51:39;;;;;;;1.30;1.20;;;;;;;9.82;56.66;99125.29;1792393;79;21046;-60
2022/01/29 05:54:05;;;;;;;1.10;1.00;;;;;;;9.82;56.64;99127.13;1801259;79;21579;-60
2022/01/29 05:56:31;;;;;;;1.20;1.10;;;;;;;9.81;56.63;99128.97;1794771;79;21217;-60
2022/01/29 05:59:00;;;;;;;1.35;1.25;;;;;;;9.82;56.61;99136.41;1800361;79;21083;-60
2022/01/29 06:01:26;;;;;;;1.65;1.17;;;;;;;9.82;56.62;99141.20;1788735;79;21571;-62
2022/01/29 06:03:52;;;;;;;1.10;1.00;;;;;;;9.82;56.58;99140.39;1789087;78;21072;-60
2022/01/29 06:06:19;;;;;;;1.15;1.05;;;;;;;9.83;56.58;99147.33;1808491;78;21026;-61
2022/01/29 06:08:46;;;;;;;1.27;1.00;;;;;;;9.81;56.58;99144.88;1796862;78;21069;-63
2022/01/29 06:11:12;;;;;;;1.10;0.98;;;;;;;9.82;56.57;99153.66;1792827;79;21076;-61
2022/01/29 06:13:40;;;;;;;1.12;1.02;;;;;;;9.77;56.55;99146.24;1790494;79;21016;-61
2022/01/29 06:16:07;;;;;;;1.37;1.00;;;;;;;9.82;56.54;99147.02;1786004;79;21104;-62
2022/01/29 06:18:33;;;;;;;1.20;1.10;;;;;;;9.82;56.52;99161.61;1797581;79;21080;-60
2022/01/29 06:21:04;;;;;;;1.00;1.00;;;;;;;9.81;56.54;99154.16;1800775;79;22077;-60
2022/01/29 06:23:33;;;;;;;1.30;1.20;;;;;;;9.81;56.53;99164.78;1789836;79;21048;-61
2022/01/29 06:26:03;;;;;;;1.15;1.05;;;;;;;9.81;56.53;99170.08;1798753;79;21016;-62
2022/01/29 06:28:30;;;;;;;1.20;1.10;;;;;;;9.81;56.52;99170.08;1799356;79;21518;-62
2022/01/29 06:30:57;;;;;;;1.17;1.07;;;;;;;9.81;56.52;99177.19;1784851;79;21024;-62
2022/01/29 06:33:23;;;;;;;1.10;1.00;;;;;;;9.81;56.53;99174.54;1816278;78;21117;-60
2022/01/29 06:35:49;;;;;;;1.10;1.00;;;;;;;9.81;56.50;99181.17;1803718;78;21312;-61
2022/01/29 06:38:15;;;;;;;1.20;1.10;;;;;;;9.82;56.49;99184.16;1793025;78;21066;-61
2022/01/29 06:40:42;;;;;;;1.00;1.00;;;;;;;9.81;56.47;99185.16;1814391;78;21018;-61
2022/01/29 06:43:09;;;;;;;1.10;1.00;;;;;;;9.80;56.46;99185.66;1816233;78;21035;-62
2022/01/29 06:45:37;;;;;;;0.80;0.80;;;;;;;9.81;56.46;99184.67;1803885;78;21857;-60
2022/01/29 06:48:04;;;;;;;1.30;1.00;;;;;;;9.77;56.47;99187.84;1809504;78;20972;-62
2022/01/29 06:50:33;;;;;;;1.07;1.00;;;;;;;9.81;56.45;99195.28;1776790;79;21541;-61
2022/01/29 06:52:59;;;;;;;1.20;1.00;;;;;;;9.81;56.43;99203.24;1809487;78;21007;-61
2022/01/29 06:55:25;;;;;;;1.20;1.10;;;;;;;9.82;56.43;99197.42;1813473;78;21453;-61
2022/01/29 06:57:52;;;;;;;0.90;0.90;;;;;;;9.81;56.41;99207.70;1814914;79;21140;-61
2022/01/29 07:00:19;;;;;;;1.00;0.90;;;;;;;9.82;56.41;99214.16;1790167;78;21052;-62
2022/01/29 07:02:45;;;;;;;1.10;1.00;;;;;;;9.81;56.39;99221.81;1788225;78;21591;-61
2022/01/29 07:05:12;;;;;;;0.85;0.85;;;;;;;9.82;56.37;99218.65;1781816;78;21000;-62
2022/01/29 07:07:39;;;;;;;1.00;1.00;;;;;;;9.82;56.35;99216.81;1783314;79;21620;-61
2022/01/29 07:10:07;;;;;;;1.37;1.10;;;;;;;9.83;56.35;99229.57;1787240;79;21088;-62
2022/01/29 07:12:36;;;;;;;1.20;1.10;;;;;;;9.83;56.34;99222.94;1773689;80;21015;-62
2022/01/29 07:15:08;;;;;;;1.37;1.27;;;;;;;9.82;56.30;99228.75;1793674;78;21056;-61
2022/01/29 07:17:35;;;;;;;1.52;1.30;;;;;;;9.83;56.29;99241.51;1796634;78;21080;-62
2022/01/29 07:20:01;;;;;;;1.30;1.20;;;;;;;9.83;56.29;99229.57;1798467;78;22509;-61
2022/01/29 07:22:27;;;;;;;1.17;1.07;;;;;;;9.82;56.27;99243.34;1772826;79;21950;-60
2022/01/29 07:24:54;;;;;;;1.10;1.00;;;;;;;9.83;56.26;99245.48;1781463;78;21132;-62
2022/01/29 07:27:20;;;;;;;0.90;0.90;;;;;;;9.83;56.26;99245.48;1795314;79;21925;-61
2022/01/29 07:29:46;;;;;;;1.20;1.10;;;;;;;9.83;56.26;99250.31;1780380;79;21091;-61
2022/01/29 07:32:13;;;;;;;1.30;1.20;;;;;;;9.82;56.25;99249.98;1759474;80;21087;-63
2022/01/29 07:34:40;;;;;;;0.90;0.90;;;;;;;9.82;56.22;99249.98;1738875;80;21544;-61
2022/01/29 07:37:06;;;;;;;1.20;1.10;;;;;;;9.83;56.21;99257.42;1780826;80;21061;-62
2022/01/29 07:39:33;;;;;;;1.50;1.35;;;;;;;9.83;56.20;99261.41;1752822;80;21473;-60
2022/01/29 07:42:00;;;;;;;0.90;0.90;;;;;;;9.83;56.20;99273.34;1752680;80;21074;-62
2022/01/29 07:44:26;;;;;;;1.20;0.98;;;;;;;9.82;56.17;99265.08;1746745;81;21674;-61
2022/01/29 07:46:53;;;;;;;1.10;1.00;;;;;;;9.82;56.18;99268.55;1740169;81;22623;-61
2022/01/29 07:49:19;;;;;;;1.17;1.07;;;;;;;9.83;56.18;99272.87;1747585;81;21063;-62
2022/01/29 07:51:46;;;;;;;1.10;1.00;;;;;;;9.83;56.15;99276.00;1755513;81;21064;-63
2022/01/29 07:54:12;;;;;;;0.80;0.80;;;;;;;9.83;56.15;99279.98;1756545;81;21040;-62
2022/01/29 07:56:38;;;;;;;1.40;1.30;;;;;;;9.84;56.14;99284.30;1761322;80;21584;-62
2022/01/29 07:59:05;;;;;;;0.88;0.88;;;;;;;9.83;56.13;99283.95;1782850;79;21088;-61
2022/01/29 08:01:32;;;;;;;1.07;0.98;;;;;;;9.83;56.11;99283.48;1755837;81;21014;-61
2022/01/29 08:03:58;;;;;;;0.80;0.80;;;;;;;9.85;56.09;99288.62;1758962;81;21050;-62
2022/01/29 08:06:26;;;;;;;1.10;1.00;;;;;;;9.84;56.08;99301.03;1758324;80;21044;-64
2022/01/29 08:08:52;;;;;;;1.20;1.10;;;;;;;9.85;56.08;99285.97;1758657;81;20992;-62
2022/01/29 08:11:19;;;;;;;1.05;1.00;;;;;;;9.84;56.06;99297.56;1756632;81;21197;-62
2022/01/29 08:13:46;;;;;;;1.02;0.93;;;;;;;9.84;56.05;99297.56;1733830;80;21063;-63
2022/01/29 08:16:15;;;;;;;1.75;1.35;;;;;;;9.86;56.04;99302.70;1762081;80;21516;-63
2022/01/29 08:18:43;;;;;;;1.32;1.02;;;;;;;9.86;56.03;99302.70;1774502;80;21737;-63
2022/01/29 08:21:14;;;;;;;0.98;0.90;;;;;;;9.86;56.02;99308.83;1758578;81;21502;-61
2022/01/29 08:23:41;;;;;;;0.85;0.82;;;;;;;9.86;56.00;99319.44;1758441;80;21890;-62
2022/01/29 08:26:08;;;;;;;1.10;1.00;;;;;;;9.86;55.97;99321.27;1757342;81;21010;-61
2022/01/29 08:28:36;;;;;;;1.27;1.12;;;;;;;9.86;55.98;99318.62;1751549;80;21008;-61
2022/01/29 08:31:02;;;;;;;1.10;1.00;;;;;;;9.87;55.95;99317.13;1780970;78;21136;-62
2022/01/29 08:33:30;;;;;;;1.02;1.00;;;;;;;9.87;55.94;99321.11;1792630;78;20998;-63
2022/01/29 08:35:57;;;;;;;1.25;1.10;;;;;;;9.88;55.94;99321.92;1784718;80;21068;-62
2022/01/29 08:38:25;;;;;;;1.00;0.90;;;;;;;9.88;55.92;99321.41;1785895;79;21427;-62
2022/01/29 08:40:53;;;;;;;1.20;0.95;;;;;;;9.88;55.88;99326.72;1801136;79;21076;-64
2022/01/29 08:43:19;;;;;;;1.00;1.00;;;;;;;9.88;55.87;99333.86;1801367;79;21446;-61
2022/01/29 08:45:46;;;;;;;1.37;1.27;;;;;;;9.89;55.85;99339.00;1798313;79;21048;-61
2022/01/29 08:48:12;;;;;;;1.10;1.00;;;;;;;9.89;55.84;99342.13;1794814;78;21070;-65
2022/01/29 08:50:40;;;;;;;1.45;1.10;;;;;;;9.91;55.84;99342.30;1800116;79;21076;-64
2022/01/29 08:53:07;;;;;;;1.50;1.05;;;;;;;9.91;55.81;99342.78;1801470;79;21065;-63
2022/01/29 08:55:36;;;;;;;1.20;0.90;;;;;;;9.91;55.78;99343.63;1800359;78;21544;-61
2022/01/29 08:58:05;;;;;;;1.15;1.05;;;;;;;9.94;55.78;99343.78;1788842;79;21048;-62
2022/01/29 09:00:32;;;;;;;1.12;1.00;;;;;;;9.93;55.75;99346.94;1792894;79;21059;-61
2022/01/29 09:02:58;;;;;;;1.27;1.17;;;;;;;9.95;55.73;99352.08;1790317;79;21036;-63
2022/01/29 09:05:25;;;;;;;1.40;1.15;;;;;;;9.95;55.72;99349.42;1791425;79;21084;-61
2022/01/29 09:07:51;;;;;;;1.37;1.20;;;;;;;9.95;55.70;99348.91;1799795;79;21065;-60
2022/01/29 09:10:18;;;;;;;0.90;0.90;;;;;;;9.96;55.69;99349.73;1795120;78;21082;-62
2022/01/29 09:12:45;;;;;;;1.15;1.05;;;;;;;9.97;55.66;99356.20;1801249;79;21143;-61
2022/01/29 09:15:11;;;;;;;1.32;1.20;;;;;;;9.98;55.64;99354.36;1801802;78;21033;-61
2022/01/29 09:17:39;;;;;;;1.20;1.07;;;;;;;10.00;55.62;99355.02;1801422;79;21493;-60
2022/01/29 09:20:08;;;;;;;1.20;1.10;;;;;;;10.00;55.60;99359.81;1790700;79;21041;-62
2022/01/29 09:22:35;;;;;;;1.15;1.05;;;;;;;10.01;55.59;99360.16;1781424;79;21068;-61
2022/01/29 09:25:02;;;;;;;1.17;1.05;;;;;;;10.02;55.54;99359.65;1787205;79;21140;-62
2022/01/29 09:27:29;;;;;;;1.62;1.27;;;;;;;10.03;55.54;99366.12;1799133;79;21022;-63
2022/01/29 09:29:55;;;;;;;1.10;1.00;;;;;;;10.04;55.52;99370.91;1794095;79;21002;-63
2022/01/29 09:32:21;;;;;;;1.10;1.00;;;;;;;10.04;55.52;99371.77;1791561;79;21064;-62
2022/01/29 09:34:48;;;;;;;1.42;1.20;;;;;;;10.06;55.49;99366.77;1798539;79;21548;-62
2022/01/29 09:37:14;;;;;;;1.20;1.10;;;;;;;10.05;55.47;99371.26;1793824;79;21134;-63
2022/01/29 09:39:42;;;;;;;1.10;1.00;;;;;;;10.07;55.46;99371.91;1796338;79;21513;-62
2022/01/29 09:42:11;;;;;;;1.45;1.30;;;;;;;10.08;55.42;99378.03;1776818;78;21601;-61
2022/01/29 09:44:37;;;;;;;1.50;1.35;;;;;;;10.09;55.40;99379.70;1789592;79;21041;-63
2022/01/29 09:47:05;;;;;;;1.30;1.20;;;;;;;10.09;55.39;99377.05;1788414;79;21088;-62
2022/01/29 09:49:33;;;;;;;1.37;1.27;;;;;;;10.09;55.37;99379.20;1784332;79;21179;-64
2022/01/29 09:52:01;;;;;;;1.20;1.10;;;;;;;10.09;55.36;99376.54;1787034;78;21029;-63
2022/01/29 09:54:27;;;;;;;1.22;1.12;;;;;;;10.11;55.36;99392.30;1787107;78;21157;-62
2022/01/29 09:56:54;;;;;;;1.57;1.22;;;;;;;10.11;55.32;99377.70;1767002;79;21457;-61
2022/01/29 09:59:20;;;;;;;1.27;1.05;;;;;;;10.12;55.30;99389.95;1796479;78;21082;-64
2022/01/29 10:01:46;;;;;;;1.30;1.00;;;;;;;10.12;55.29;99393.45;1789310;79;23323;-62
2022/01/29 10:04:12;;;;;;;1.32;1.20;;;;;;;10.12;55.27;99385.97;1817869;79;21039;-62
2022/01/29 10:06:43;;;;;;;1.20;1.10;;;;;;;10.12;55.25;99387.30;1797743;79;21459;-63
2022/01/29 10:09:11;;;;;;;1.10;1.00;;;;;;;10.12;55.23;99384.17;1764791;79;21005;-61
2022/01/29 10:11:36;;;;;;;1.82;1.30;;;;;;;10.12;55.21;99392.61;1780987;80;21030;-63
2022/01/29 10:14:05;;;;;;;1.10;1.00;;;;;;;10.13;55.21;99398.26;1785108;80;21245;-62
2022/01/29 10:16:33;;;;;;;1.75;1.37;;;;;;;10.13;55.19;99399.59;1817389;78;21070;-62
2022/01/29 10:19:07;;;;;;;2.05;1.30;;;;;;;10.13;55.19;99398.26;1816298;78;20991;-61
2022/01/29 10:21:47;;;;;;;1.15;1.00;;;;;;;10.13;55.19;99396.93;1784358;79;21486;-62
2022/01/29 10:24:19;;;;;;;1.20;1.10;;;;;;;10.14;55.15;99401.22;1776716;80;21013;-62
2022/01/29 10:26:50;;;;;;;1.20;1.10;;;;;;;10.13;55.17;99408.37;1795356;79;21131;-62
2022/01/29 10:29:22;;;;;;;1.70;1.00;;;;;;;10.14;55.17;99411.84;1795507;78;21088;-62
2022/01/29 10:31:53;;;;;;;1.67;1.22;;;;;;;10.14;55.14;99403.88;1789767;79;21116;-64
2022/01/29 10:34:33;;;;;;;2.70;1.40;;;;;;;10.14;55.12;99410.52;1769188;80;21146;-60
2022/01/29 10:37:17;;;;;;;1.52;1.22;;;;;;;10.13;55.12;99413.67;1768883;81;21075;-61
2022/01/29 10:39:58;;;;;;;1.32;1.10;;;;;;;10.14;55.08;99413.16;1749139;80;21126;-62
2022/01/29 10:42:36;;;;;;;1.22;1.10;;;;;;;10.14;55.07;99414.50;1769696;81;21548;-61
2022/01/29 10:45:06;;;;;;;1.62;1.20;;;;;;;10.14;55.07;99419.33;1746425;81;21528;-61
2022/01/29 10:47:56;;;;;;;1.45;1.10;;;;;;;10.13;55.07;99408.37;1764860;81;21056;-63
2022/01/29 10:50:23;;;;;;;1.37;1.10;;;;;;;10.14;55.06;99419.33;1768966;79;21207;-62
2022/01/29 10:52:50;;;;;;;1.40;1.30;;;;;;;10.14;55.05;99418.47;1768767;79;21140;-62
2022/01/29 10:55:16;;;;;;;1.27;1.05;;;;;;;10.14;55.06;99419.33;1768882;79;21047;-63
2022/01/29 10:57:45;;;;;;;1.52;1.30;;;;;;;10.15;55.04;99421.47;1768807;79;21147;-62
2022/01/29 11:00:25;;;;;;;1.15;1.05;;;;;;;10.14;55.02;99425.96;1769164;79;21035;-63
2022/01/29 11:02:54;;;;;;;1.22;1.07;;;;;;;10.15;55.02;99421.47;1760309;81;21500;-62
2022/01/29 11:05:24;;;;;;;1.40;1.20;;;;;;;10.15;54.99;99431.58;1754140;81;21552;-62
2022/01/29 11:07:54;;;;;;;1.30;1.20;;;;;;;10.16;54.97;99431.92;1769390;80;21048;-62
2022/01/29 11:10:22;;;;;;;1.30;1.20;;;;;;;10.16;54.97;99425.29;1769846;81;21065;-63
2022/01/29 11:12:49;;;;;;;1.12;1.02;;;;;;;10.16;54.96;99431.08;1745163;79;21068;-62
2022/01/29 11:15:18;;;;;;;1.30;1.00;;;;;;;10.17;54.92;99436.22;1769918;81;21083;-61
2022/01/29 11:17:45;;;;;;;1.22;1.12;;;;;;;10.17;54.94;99436.22;1769644;81;21314;-64
2022/01/29 11:20:13;;;;;;;1.12;1.02;;;;;;;10.17;54.92;99436.72;1768002;81;21545;-63
2022/01/29 11:22:43;;;;;;;1.30;1.10;;;;;;;10.18;54.88;99435.73;1758580;79;21032;-61
2022/01/29 11:25:21;;;;;;;1.55;1.20;;;;;;;10.18;54.86;99424.61;1765236;81;20981;-62
2022/01/29 11:27:47;;;;;;;1.22;1.12;;;;;;;10.18;54.84;99431.75;1764732;81;21557;-61
2022/01/29 11:30:15;;;;;;;1.50;1.27;;;;;;;10.19;54.83;99436.05;1769424;81;21058;-63
2022/01/29 11:32:47;;;;;;;1.00;1.00;;;;;;;10.19;54.83;99432.88;1772166;79;21009;-62
2022/01/29 11:35:21;;;;;;;1.10;1.00;;;;;;;10.21;54.81;99443.34;1790139;78;21015;-63
2022/01/29 11:37:57;;;;;;;1.12;1.10;;;;;;;10.21;54.77;99440.69;1792187;79;21001;-62
2022/01/29 11:40:35;;;;;;;1.37;1.10;;;;;;;10.20;54.76;99439.86;1785800;79;21064;-62
2022/01/29 11:43:22;;;;;;;1.32;1.20;;;;;;;10.22;54.76;99447.66;1777321;79;22280;-64
2022/01/29 11:45:55;;;;;;;1.37;1.22;;;;;;;10.21;54.75;99455.28;1780592;79;21080;-63
2022/01/29 11:48:31;;;;;;;1.27;1.17;;;;;;;10.21;54.72;99457.94;1798183;79;21516;-64
2022/01/29 11:51:07;;;;;;;1.75;1.45;;;;;;;10.21;54.72;99451.30;1794774;79;21017;-63
2022/01/29 11:53:51;;;;;;;1.40;1.20;;;;;;;10.21;54.71;99463.25;1784340;79;21487;-64